Collegedale, Tennessee
Current Conditions -  °F | °C
As of 9:53 PM on Thursday 18 Dec 2014 (Local Time) from KCHA Reporting Station
Overcast Overcast  
Wind Chill: 43°   Ceiling: 4700
Heat Index: 45°   Visibility: 10mi
Dew Point: 36°   Wind: 5mph
Humidity: 71%   Direction: 360°N
Pressure: 30.19"   Gusts: NA
Location:  35.06°N, 85.07°W
Report Text: KCHA 190253Z 36004KT 10SM OVC047 07/02 A3019 RMK AO2 SLP225 T00720022 51007
Loading
Personal Weather Stations






























Interactive Weather Map New forecast layout! Learn more

10-Day Weather Forecast

Advertisements
Track Severe Weather on mobile